Time;durP1;ratioP1;P1;durP2;ratioP2;P2;SDS_P1;SDS_P2;PMS_P1;PMS_P2;Temp;Humidity;BMP_temperature;BMP_pressure;BME280_temperature;BME280_humidity;BME280_pressure;Samples;Min_cycle;Max_cycle;Signal;HPM_P1;HPM_P2
2023/06/01 00:02:07;;;;;;;9.80;5.72;;;;;;;;;;5092592;28;20023;-64
2023/06/01 00:04:32;;;;;;;8.45;5.20;;;;;;;;;;5104507;28;20032;-65
2023/06/01 00:07:01;;;;;;;8.73;5.85;;;;;;;;;;5091021;28;20520;-65
2023/06/01 00:09:26;;;;;;;12.20;5.95;;;;;;;;;;5091035;28;20027;-65
2023/06/01 00:11:51;;;;;;;9.00;5.55;;;;;;;;;;5104861;28;20044;-64
2023/06/01 00:14:18;;;;;;;12.40;5.77;;;;;;;;;;5100314;28;20028;-63
2023/06/01 00:16:44;;;;;;;12.68;6.28;;;;;;;;;;5090680;28;20269;-65
2023/06/01 00:19:11;;;;;;;9.98;5.78;;;;;;;;;;5090583;28;20390;-65
2023/06/01 00:21:36;;;;;;;9.40;5.50;;;;;;;;;;5101928;28;20103;-65
2023/06/01 00:24:02;;;;;;;9.82;5.57;;;;;;;;;;5091941;28;20063;-65
2023/06/01 00:26:29;;;;;;;10.65;5.60;;;;;;;;;;5092176;28;20056;-65
2023/06/01 00:28:55;;;;;;;11.82;6.00;;;;;;;;;;5090863;28;20530;-63
2023/06/01 00:31:20;;;;;;;9.13;5.28;;;;;;;;;;5103506;28;20125;-64
2023/06/01 00:33:45;;;;;;;12.57;6.13;;;;;;;;;;5091153;28;20024;-63
2023/06/01 00:36:10;;;;;;;14.00;6.07;;;;;;;;;;5090814;28;20626;-64
2023/06/01 00:38:36;;;;;;;10.77;7.00;;;;;;;;;;5105093;28;20039;-64
2023/06/01 00:41:01;;;;;;;12.77;6.13;;;;;;;;;;5113705;28;20015;-64
2023/06/01 00:43:26;;;;;;;12.27;5.72;;;;;;;;;;5113190;28;20027;-64
2023/06/01 00:45:52;;;;;;;10.23;6.32;;;;;;;;;;5112647;28;20047;-64
2023/06/01 00:48:17;;;;;;;21.02;5.75;;;;;;;;;;5107330;28;20024;-64
2023/06/01 00:50:43;;;;;;;12.90;6.65;;;;;;;;;;5111225;28;20027;-65
2023/06/01 00:53:10;;;;;;;9.43;6.55;;;;;;;;;;5112640;28;20031;-64
2023/06/01 00:55:36;;;;;;;10.60;6.53;;;;;;;;;;5110752;28;20024;-64
2023/06/01 00:58:02;;;;;;;9.30;5.70;;;;;;;;;;5112337;28;20038;-64
2023/06/01 01:00:28;;;;;;;8.57;6.10;;;;;;;;;;5110672;28;20028;-64
2023/06/01 01:02:56;;;;;;;13.27;7.70;;;;;;;;;;5111579;28;20045;-64
2023/06/01 01:05:26;;;;;;;11.80;7.25;;;;;;;;;;5113454;28;20023;-65
2023/06/01 01:07:51;;;;;;;9.20;6.30;;;;;;;;;;5113963;28;20031;-64
2023/06/01 01:10:35;;;;;;;12.83;7.07;;;;;;;;;;5112076;28;20046;-64
2023/06/01 01:13:06;;;;;;;11.05;7.65;;;;;;;;;;5101767;28;20273;-64
2023/06/01 01:15:47;;;;;;;10.80;7.07;;;;;;;;;;5096122;28;20044;-65
2023/06/01 01:18:19;;;;;;;14.50;8.10;;;;;;;;;;5110630;28;20034;-64
2023/06/01 01:20:48;;;;;;;12.38;7.55;;;;;;;;;;5113744;28;20511;-64
2023/06/01 01:23:13;;;;;;;12.65;8.32;;;;;;;;;;5113308;28;20171;-63
2023/06/01 01:25:41;;;;;;;14.45;8.40;;;;;;;;;;5113724;28;20168;-65
2023/06/01 01:28:12;;;;;;;14.48;7.95;;;;;;;;;;5112255;28;20588;-64
2023/06/01 01:30:40;;;;;;;12.35;8.75;;;;;;;;;;5112937;28;20050;-64
2023/06/01 01:33:06;;;;;;;14.48;9.30;;;;;;;;;;5113003;28;20042;-64
2023/06/01 01:35:32;;;;;;;13.80;8.23;;;;;;;;;;5112731;28;20385;-64
2023/06/01 01:37:57;;;;;;;11.73;8.23;;;;;;;;;;5111869;28;20024;-64
2023/06/01 01:40:22;;;;;;;12.75;8.07;;;;;;;;;;5111936;28;20093;-64
2023/06/01 01:42:48;;;;;;;18.42;8.57;;;;;;;;;;5104490;28;20032;-64
2023/06/01 01:45:15;;;;;;;10.93;8.57;;;;;;;;;;5107761;28;20539;-65
2023/06/01 01:47:40;;;;;;;14.95;8.85;;;;;;;;;;5106170;28;20526;-64
2023/06/01 01:50:09;;;;;;;20.63;8.83;;;;;;;;;;5108204;28;20051;-64
2023/06/01 01:52:37;;;;;;;13.23;8.02;;;;;;;;;;5104157;28;20262;-64
2023/06/01 01:55:05;;;;;;;13.48;8.90;;;;;;;;;;5106098;28;20474;-64
2023/06/01 01:57:33;;;;;;;15.70;10.68;;;;;;;;;;5102417;28;20191;-65
2023/06/01 01:59:59;;;;;;;12.52;9.15;;;;;;;;;;5104335;28;20378;-64
2023/06/01 02:02:24;;;;;;;15.18;8.93;;;;;;;;;;5103082;28;20062;-64
2023/06/01 02:04:50;;;;;;;16.52;9.02;;;;;;;;;;5103134;28;20619;-64
2023/06/01 02:07:15;;;;;;;12.30;9.38;;;;;;;;;;5094742;28;20028;-64
2023/06/01 02:09:41;;;;;;;17.40;9.80;;;;;;;;;;5103971;28;20023;-65
2023/06/01 02:12:06;;;;;;;13.55;9.38;;;;;;;;;;5096229;28;20022;-63
2023/06/01 02:14:32;;;;;;;29.67;9.68;;;;;;;;;;5092604;28;20028;-64
2023/06/01 02:16:57;;;;;;;14.57;9.57;;;;;;;;;;5113366;28;20501;-65
2023/06/01 02:19:23;;;;;;;15.93;9.98;;;;;;;;;;5112080;28;20027;-65
2023/06/01 02:21:48;;;;;;;18.35;9.93;;;;;;;;;;5112180;28;20015;-65
2023/06/01 02:24:13;;;;;;;10.93;9.18;;;;;;;;;;5110437;28;20073;-65
2023/06/01 02:26:38;;;;;;;14.55;10.82;;;;;;;;;;5091731;28;20090;-65
2023/06/01 02:29:05;;;;;;;20.15;11.07;;;;;;;;;;5092299;28;20012;-64
2023/06/01 02:31:34;;;;;;;20.77;10.38;;;;;;;;;;5092526;28;20107;-64
2023/06/01 02:34:00;;;;;;;16.45;11.00;;;;;;;;;;5092305;28;20020;-65
2023/06/01 02:36:26;;;;;;;13.57;10.60;;;;;;;;;;5092158;28;20497;-65
2023/06/01 02:38:51;;;;;;;19.10;11.35;;;;;;;;;;5093150;28;20028;-64
2023/06/01 02:41:16;;;;;;;19.33;12.13;;;;;;;;;;5093892;28;20562;-65
2023/06/01 02:43:42;;;;;;;15.65;11.32;;;;;;;;;;5102887;28;20265;-65
2023/06/01 02:46:07;;;;;;;15.52;12.25;;;;;;;;;;5111957;28;20030;-64
2023/06/01 02:48:32;;;;;;;15.80;11.70;;;;;;;;;;5111674;28;20497;-64
2023/06/01 02:50:57;;;;;;;15.30;11.15;;;;;;;;;;5111005;28;20024;-64
2023/06/01 02:53:22;;;;;;;17.38;12.45;;;;;;;;;;5111998;28;20059;-64
2023/06/01 02:55:48;;;;;;;19.13;14.13;;;;;;;;;;5111461;28;20027;-64
2023/06/01 02:58:16;;;;;;;20.90;14.20;;;;;;;;;;5110829;28;20087;-64
2023/06/01 03:00:45;;;;;;;20.67;13.30;;;;;;;;;;5101268;28;20385;-64
2023/06/01 03:03:10;;;;;;;19.35;14.35;;;;;;;;;;5109410;28;20493;-64
2023/06/01 03:05:35;;;;;;;23.90;14.02;;;;;;;;;;5098414;28;20067;-64
2023/06/01 03:08:01;;;;;;;19.70;14.32;;;;;;;;;;5102261;28;20047;-64
2023/06/01 03:10:27;;;;;;;26.38;15.05;;;;;;;;;;5107969;28;20027;-63
2023/06/01 03:12:52;;;;;;;18.55;14.50;;;;;;;;;;5111373;28;20430;-63
2023/06/01 03:15:17;;;;;;;27.95;14.02;;;;;;;;;;5109023;28;20497;-63
2023/06/01 03:17:43;;;;;;;19.15;15.57;;;;;;;;;;5091074;28;20035;-63
2023/06/01 03:20:14;;;;;;;20.05;14.65;;;;;;;;;;5090856;28;20031;-64
2023/06/01 03:22:40;;;;;;;19.92;15.52;;;;;;;;;;5091849;28;20493;-64
2023/06/01 03:25:07;;;;;;;22.13;17.20;;;;;;;;;;5092015;28;20097;-64
2023/06/01 03:27:32;;;;;;;21.75;16.17;;;;;;;;;;5101407;28;20034;-63
2023/06/01 03:29:57;;;;;;;27.13;16.95;;;;;;;;;;5108349;28;20020;-64
2023/06/01 03:32:22;;;;;;;22.92;15.68;;;;;;;;;;5091205;28;20020;-64
2023/06/01 03:34:48;;;;;;;18.92;15.25;;;;;;;;;;5101344;28;20103;-63
2023/06/01 03:37:13;;;;;;;26.52;16.80;;;;;;;;;;5109841;28;20020;-63
2023/06/01 03:39:39;;;;;;;21.27;16.35;;;;;;;;;;5092606;28;20485;-63
2023/06/01 03:42:04;;;;;;;22.55;17.35;;;;;;;;;;5093194;28;20072;-63
2023/06/01 03:44:30;;;;;;;22.45;17.00;;;;;;;;;;5092671;28;20020;-62
2023/06/01 03:46:55;;;;;;;21.98;17.30;;;;;;;;;;5093673;28;20028;-64
2023/06/01 03:49:20;;;;;;;29.42;18.13;;;;;;;;;;5093028;28;20039;-64
2023/06/01 03:51:45;;;;;;;20.95;15.02;;;;;;;;;;5096405;28;20026;-64
2023/06/01 03:54:11;;;;;;;21.77;17.48;;;;;;;;;;5093103;28;20540;-64
2023/06/01 03:56:36;;;;;;;22.23;16.52;;;;;;;;;;5106501;28;20055;-64
2023/06/01 03:59:01;;;;;;;26.25;17.17;;;;;;;;;;5092972;28;20036;-64
2023/06/01 04:01:30;;;;;;;26.38;18.23;;;;;;;;;;5096531;28;20012;-64
2023/06/01 04:03:56;;;;;;;23.38;18.27;;;;;;;;;;5098578;28;20020;-64
2023/06/01 04:06:21;;;;;;;31.67;18.38;;;;;;;;;;5095102;28;20038;-64
2023/06/01 04:08:55;;;;;;;27.00;17.88;;;;;;;;;;5101698;28;20028;-64
2023/06/01 04:11:20;;;;;;;25.70;19.08;;;;;;;;;;5095966;28;20031;-63
2023/06/01 04:13:46;;;;;;;26.52;19.00;;;;;;;;;;5091209;28;20038;-63
2023/06/01 04:16:11;;;;;;;27.58;19.58;;;;;;;;;;5096520;28;20036;-64
2023/06/01 04:18:36;;;;;;;26.17;19.38;;;;;;;;;;5092197;28;20027;-64
2023/06/01 04:21:02;;;;;;;38.45;22.70;;;;;;;;;;5094245;28;20023;-64
2023/06/01 04:23:27;;;;;;;34.00;22.83;;;;;;;;;;5091298;28;20034;-64
2023/06/01 04:25:53;;;;;;;32.42;23.15;;;;;;;;;;5091815;28;20024;-64
2023/06/01 04:28:20;;;;;;;37.53;25.48;;;;;;;;;;5099970;28;20538;-63
2023/06/01 04:30:47;;;;;;;31.52;25.02;;;;;;;;;;5110759;28;20028;-63
2023/06/01 04:33:12;;;;;;;36.78;24.55;;;;;;;;;;5100821;28;20026;-64
2023/06/01 04:35:38;;;;;;;30.52;23.23;;;;;;;;;;5106326;28;20142;-64
2023/06/01 04:38:03;;;;;;;33.90;26.20;;;;;;;;;;5110138;28;20019;-63
2023/06/01 04:40:28;;;;;;;42.10;26.45;;;;;;;;;;5107019;28;20024;-63
2023/06/01 04:42:56;;;;;;;35.30;28.05;;;;;;;;;;5090220;28;20088;-63
2023/06/01 04:45:23;;;;;;;46.28;30.35;;;;;;;;;;5087937;28;20478;-62
2023/06/01 04:47:48;;;;;;;52.10;31.17;;;;;;;;;;5110218;28;20087;-64
2023/06/01 04:50:15;;;;;;;47.40;31.90;;;;;;;;;;5110239;28;20470;-64
2023/06/01 04:52:41;;;;;;;41.88;30.95;;;;;;;;;;5110827;28;20518;-64
2023/06/01 04:55:06;;;;;;;38.38;29.55;;;;;;;;;;5109923;28;20030;-64
2023/06/01 04:57:35;;;;;;;44.28;31.73;;;;;;;;;;5110460;28;20042;-62
2023/06/01 05:00:01;;;;;;;43.60;32.45;;;;;;;;;;5109835;28;20023;-64
2023/06/01 05:02:27;;;;;;;38.28;31.38;;;;;;;;;;5110425;28;20015;-64
2023/06/01 05:04:52;;;;;;;41.28;29.48;;;;;;;;;;5100199;28;20024;-64
2023/06/01 05:07:18;;;;;;;36.45;27.27;;;;;;;;;;5103154;28;20038;-64
2023/06/01 05:09:43;;;;;;;37.50;27.95;;;;;;;;;;5090708;28;20473;-64
2023/06/01 05:12:08;;;;;;;40.40;28.45;;;;;;;;;;5090484;28;20081;-64
2023/06/01 05:14:34;;;;;;;42.38;28.50;;;;;;;;;;5091381;28;20451;-63
2023/06/01 05:17:00;;;;;;;33.88;27.10;;;;;;;;;;5094707;28;20032;-62
2023/06/01 05:19:25;;;;;;;38.47;26.35;;;;;;;;;;5109650;28;20102;-64
2023/06/01 05:21:50;;;;;;;35.47;25.40;;;;;;;;;;5099915;28;20500;-64
2023/06/01 05:24:16;;;;;;;37.47;25.75;;;;;;;;;;5102130;28;20020;-64
2023/06/01 05:26:41;;;;;;;33.50;24.60;;;;;;;;;;5103319;28;20043;-63
2023/06/01 05:29:06;;;;;;;33.55;25.42;;;;;;;;;;5107092;28;20023;-63
2023/06/01 05:31:32;;;;;;;30.00;22.50;;;;;;;;;;5110076;28;20469;-63
2023/06/01 05:33:57;;;;;;;33.72;22.98;;;;;;;;;;5102779;28;20027;-64
2023/06/01 05:36:22;;;;;;;29.40;22.95;;;;;;;;;;5106056;28;20512;-63
2023/06/01 05:38:47;;;;;;;31.70;22.98;;;;;;;;;;5112820;28;20043;-63
2023/06/01 05:41:13;;;;;;;26.25;21.20;;;;;;;;;;5108427;28;20020;-63
2023/06/01 05:43:38;;;;;;;31.90;22.70;;;;;;;;;;5110831;28;20110;-64
2023/06/01 05:46:04;;;;;;;30.50;23.73;;;;;;;;;;5101092;28;20579;-64
2023/06/01 05:48:29;;;;;;;34.67;23.15;;;;;;;;;;5099223;28;20531;-64
2023/06/01 05:50:55;;;;;;;36.33;20.42;;;;;;;;;;5109177;28;20022;-64
2023/06/01 05:53:24;;;;;;;28.10;21.50;;;;;;;;;;5099713;28;20024;-64
2023/06/01 05:55:49;;;;;;;26.30;18.92;;;;;;;;;;5100791;28;20016;-64
2023/06/01 05:58:14;;;;;;;29.45;19.83;;;;;;;;;;5098813;28;20528;-64
2023/06/01 06:00:40;;;;;;;25.52;20.70;;;;;;;;;;5081674;28;20159;-64
2023/06/01 06:03:05;;;;;;;33.72;21.30;;;;;;;;;;5104927;28;20424;-64
2023/06/01 06:05:30;;;;;;;24.42;19.63;;;;;;;;;;5111956;28;20114;-64
2023/06/01 06:07:55;;;;;;;30.05;20.58;;;;;;;;;;5093116;28;20032;-64
2023/06/01 06:10:21;;;;;;;30.40;18.90;;;;;;;;;;5093176;28;20497;-63
2023/06/01 06:12:47;;;;;;;26.65;18.65;;;;;;;;;;5093588;28;20035;-63
2023/06/01 06:15:12;;;;;;;29.25;17.95;;;;;;;;;;5093476;28;20374;-64
2023/06/01 06:17:37;;;;;;;25.13;19.02;;;;;;;;;;5110210;28;20032;-64
2023/06/01 06:20:06;;;;;;;22.20;18.20;;;;;;;;;;5111838;28;20156;-64
2023/06/01 06:22:32;;;;;;;24.40;18.85;;;;;;;;;;5100883;28;20035;-64
2023/06/01 06:24:57;;;;;;;24.08;17.27;;;;;;;;;;5104128;28;20016;-63
2023/06/01 06:27:22;;;;;;;27.63;18.10;;;;;;;;;;5106354;28;20606;-64
2023/06/01 06:29:47;;;;;;;23.52;18.88;;;;;;;;;;5107451;28;20101;-64
2023/06/01 06:32:13;;;;;;;23.13;17.93;;;;;;;;;;5106546;28;20027;-64
2023/06/01 06:34:38;;;;;;;26.65;18.75;;;;;;;;;;5100598;28;20289;-64
2023/06/01 06:37:07;;;;;;;29.40;19.63;;;;;;;;;;5102096;28;20428;-64
2023/06/01 06:39:32;;;;;;;22.33;18.90;;;;;;;;;;5107241;28;20380;-64
2023/06/01 06:41:58;;;;;;;36.75;21.00;;;;;;;;;;5106691;28;20107;-64
2023/06/01 06:44:23;;;;;;;25.73;19.83;;;;;;;;;;5110953;28;20023;-64
2023/06/01 06:46:49;;;;;;;30.30;21.52;;;;;;;;;;5110028;28;20408;-63
2023/06/01 06:49:14;;;;;;;27.17;20.00;;;;;;;;;;5110749;28;20045;-64
2023/06/01 06:51:39;;;;;;;28.83;19.35;;;;;;;;;;5109990;28;20062;-64
2023/06/01 06:54:06;;;;;;;23.13;17.63;;;;;;;;;;5106297;28;20020;-64
2023/06/01 06:56:31;;;;;;;18.38;16.35;;;;;;;;;;5106441;28;20028;-64
2023/06/01 06:58:56;;;;;;;21.70;15.73;;;;;;;;;;5109437;28;20076;-64
2023/06/01 07:01:24;;;;;;;20.23;16.10;;;;;;;;;;5107601;28;20485;-64
2023/06/01 07:03:51;;;;;;;21.60;15.38;;;;;;;;;;5110426;28;20027;-64
2023/06/01 07:06:16;;;;;;;20.60;14.85;;;;;;;;;;5091969;28;20118;-64
2023/06/01 07:08:42;;;;;;;28.33;16.25;;;;;;;;;;5091776;28;20087;-64
2023/06/01 07:11:07;;;;;;;16.35;14.40;;;;;;;;;;5091216;28;20373;-64
2023/06/01 07:13:32;;;;;;;17.20;13.65;;;;;;;;;;5091793;28;20027;-64
2023/06/01 07:15:57;;;;;;;20.15;14.13;;;;;;;;;;5092972;28;20031;-64
2023/06/01 07:18:23;;;;;;;24.02;14.35;;;;;;;;;;5092917;28;20012;-64
2023/06/01 07:20:48;;;;;;;15.93;13.40;;;;;;;;;;5092340;28;20499;-64
2023/06/01 07:23:15;;;;;;;18.80;14.07;;;;;;;;;;5092158;28;20024;-64
2023/06/01 07:25:41;;;;;;;19.50;13.50;;;;;;;;;;5092551;28;20024;-64
2023/06/01 07:28:07;;;;;;;17.38;14.05;;;;;;;;;;5091044;28;20105;-64
2023/06/01 07:30:33;;;;;;;18.92;13.88;;;;;;;;;;5073574;28;20028;-65
2023/06/01 07:32:58;;;;;;;18.13;12.02;;;;;;;;;;5091661;28;20115;-63
2023/06/01 07:35:24;;;;;;;18.90;12.45;;;;;;;;;;5106314;28;20024;-64
2023/06/01 07:37:49;;;;;;;17.95;12.80;;;;;;;;;;5103900;28;20415;-64
2023/06/01 07:40:15;;;;;;;17.90;12.40;;;;;;;;;;5094779;28;20024;-64
2023/06/01 07:42:40;;;;;;;17.23;12.07;;;;;;;;;;5111352;28;20103;-64
2023/06/01 07:45:07;;;;;;;16.70;11.68;;;;;;;;;;5110881;28;20081;-65
2023/06/01 07:47:33;;;;;;;18.00;12.50;;;;;;;;;;5111614;28;20469;-63
2023/06/01 07:49:58;;;;;;;17.67;11.85;;;;;;;;;;5110031;28;20076;-64
2023/06/01 07:52:24;;;;;;;19.60;13.35;;;;;;;;;;5111511;28;20470;-64
2023/06/01 07:54:49;;;;;;;20.60;12.68;;;;;;;;;;5110911;28;20075;-64
2023/06/01 07:57:15;;;;;;;17.15;12.30;;;;;;;;;;5110730;28;20055;-64
2023/06/01 07:59:40;;;;;;;15.80;12.32;;;;;;;;;;5108604;28;20035;-64
2023/06/01 08:02:06;;;;;;;19.35;13.25;;;;;;;;;;5104269;28;20454;-64
2023/06/01 08:04:33;;;;;;;16.70;13.05;;;;;;;;;;5109966;28;20033;-63
2023/06/01 08:06:58;;;;;;;15.38;12.60;;;;;;;;;;5110185;28;20362;-63
2023/06/01 08:09:23;;;;;;;23.25;12.88;;;;;;;;;;5111506;28;20016;-64
2023/06/01 08:11:49;;;;;;;19.98;13.32;;;;;;;;;;5097981;28;20024;-64
2023/06/01 08:14:15;;;;;;;23.85;13.68;;;;;;;;;;5091984;28;20035;-63
2023/06/01 08:16:41;;;;;;;19.75;13.75;;;;;;;;;;5092011;28;20035;-63
2023/06/01 08:19:06;;;;;;;24.33;13.07;;;;;;;;;;5097944;28;20098;-64
2023/06/01 08:21:31;;;;;;;18.38;13.45;;;;;;;;;;5097740;28;20028;-64
2023/06/01 08:23:57;;;;;;;28.67;13.88;;;;;;;;;;5097019;28;20020;-64
2023/06/01 08:26:23;;;;;;;15.63;12.25;;;;;;;;;;5110632;28;20030;-64
2023/06/01 08:28:51;;;;;;;17.30;13.15;;;;;;;;;;5108767;28;20533;-64
2023/06/01 08:31:20;;;;;;;16.63;12.43;;;;;;;;;;5108874;28;20027;-64
2023/06/01 08:33:46;;;;;;;15.27;12.27;;;;;;;;;;5100810;28;20016;-64
2023/06/01 08:36:11;;;;;;;16.75;12.00;;;;;;;;;;5091281;28;20020;-64
2023/06/01 08:38:36;;;;;;;19.05;12.55;;;;;;;;;;5090926;28;20119;-64
2023/06/01 08:41:04;;;;;;;20.10;12.48;;;;;;;;;;5091402;28;20016;-64
2023/06/01 08:43:32;;;;;;;14.13;11.63;;;;;;;;;;5094617;28;20028;-63
2023/06/01 08:45:58;;;;;;;12.63;11.25;;;;;;;;;;5098792;28;20092;-63
2023/06/01 08:48:23;;;;;;;16.08;12.27;;;;;;;;;;5088429;28;20811;-64
2023/06/01 08:50:50;;;;;;;15.07;11.00;;;;;;;;;;5066806;28;20905;-64
2023/06/01 08:53:18;;;;;;;16.33;12.02;;;;;;;;;;5092877;28;20023;-64
2023/06/01 08:55:45;;;;;;;15.95;12.30;;;;;;;;;;5108076;28;20558;-64
2023/06/01 08:58:10;;;;;;;17.08;12.15;;;;;;;;;;5096714;28;20038;-64
2023/06/01 09:00:36;;;;;;;16.35;11.25;;;;;;;;;;5107957;28;20020;-65
2023/06/01 09:03:02;;;;;;;17.83;12.38;;;;;;;;;;5108919;28;20047;-62
2023/06/01 09:05:27;;;;;;;20.23;13.98;;;;;;;;;;5107141;28;20024;-64
2023/06/01 09:07:54;;;;;;;19.95;13.30;;;;;;;;;;5102878;28;20110;-64
2023/06/01 09:10:25;;;;;;;18.80;11.40;;;;;;;;;;5097779;28;20360;-64
2023/06/01 09:12:51;;;;;;;23.70;12.68;;;;;;;;;;5101644;28;20016;-64
2023/06/01 09:15:17;;;;;;;14.48;11.80;;;;;;;;;;5097992;28;20063;-64
2023/06/01 09:17:43;;;;;;;21.75;13.13;;;;;;;;;;5103567;28;20466;-65
2023/06/01 09:20:12;;;;;;;25.77;12.05;;;;;;;;;;5113221;28;20023;-66
2023/06/01 09:22:42;;;;;;;17.05;12.23;;;;;;;;;;5104337;28;20030;-67
2023/06/01 09:25:08;;;;;;;20.45;13.43;;;;;;;;;;5108924;28;20529;-64
2023/06/01 09:27:47;;;;;;;17.80;14.05;;;;;;;;;;5108853;28;20030;-63
2023/06/01 09:30:13;;;;;;;18.35;12.73;;;;;;;;;;5107706;28;20027;-65
2023/06/01 09:32:38;;;;;;;16.85;12.88;;;;;;;;;;5107824;28;20028;-65
2023/06/01 09:35:07;;;;;;;19.13;12.02;;;;;;;;;;5093473;28;20027;-64
2023/06/01 09:37:32;;;;;;;27.55;11.48;;;;;;;;;;5093121;28;20074;-64
2023/06/01 09:39:57;;;;;;;15.80;12.32;;;;;;;;;;5092775;28;20028;-64
2023/06/01 09:42:33;;;;;;;17.65;12.57;;;;;;;;;;5098214;28;20493;-64
2023/06/01 09:45:24;;;;;;;16.00;12.15;;;;;;;;;;5101479;28;20483;-65
2023/06/01 09:47:50;;;;;;;20.58;12.63;;;;;;;;;;5089708;28;20052;-64
2023/06/01 09:50:35;;;;;;;17.55;11.80;;;;;;;;;;5093897;28;20028;-64
2023/06/01 09:53:00;;;;;;;22.05;12.70;;;;;;;;;;5094106;28;20028;-66
2023/06/01 09:55:26;;;;;;;21.13;14.52;;;;;;;;;;5094548;28;20059;-63
2023/06/01 09:57:51;;;;;;;19.08;13.48;;;;;;;;;;5093528;28;20108;-65
2023/06/01 10:00:24;;;;;;;27.95;15.27;;;;;;;;;;5094718;28;20020;-66
2023/06/01 10:02:50;;;;;;;27.52;13.57;;;;;;;;;;5109758;28;20552;-65
2023/06/01 10:05:16;;;;;;;24.67;13.52;;;;;;;;;;5111134;28;20050;-65
2023/06/01 10:07:41;;;;;;;16.42;11.80;;;;;;;;;;5106491;28;20028;-64
2023/06/01 10:10:07;;;;;;;19.20;12.50;;;;;;;;;;5091283;28;20031;-65
2023/06/01 10:12:34;;;;;;;24.33;13.07;;;;;;;;;;5110917;28;20043;-65
2023/06/01 10:15:00;;;;;;;20.02;14.20;;;;;;;;;;5111329;28;20102;-64
2023/06/01 10:17:25;;;;;;;18.70;12.73;;;;;;;;;;5111589;28;20103;-64
2023/06/01 10:19:51;;;;;;;21.50;14.80;;;;;;;;;;5110783;28;20115;-66
2023/06/01 10:22:16;;;;;;;16.92;13.77;;;;;;;;;;5110981;28;20028;-65
2023/06/01 10:24:42;;;;;;;27.15;13.10;;;;;;;;;;5110356;28;20032;-64
2023/06/01 10:27:14;;;;;;;20.75;13.00;;;;;;;;;;5111082;28;20024;-63
2023/06/01 10:29:41;;;;;;;16.88;12.45;;;;;;;;;;5110261;28;20027;-64
2023/06/01 10:32:26;;;;;;;17.35;13.27;;;;;;;;;;5110205;28;20080;-64
2023/06/01 10:34:51;;;;;;;19.63;12.30;;;;;;;;;;5102835;28;20680;-64
2023/06/01 10:37:17;;;;;;;15.43;11.90;;;;;;;;;;5095735;28;20111;-63
2023/06/01 10:39:42;;;;;;;20.63;13.00;;;;;;;;;;5093099;28;20624;-63
2023/06/01 10:42:12;;;;;;;18.27;12.32;;;;;;;;;;5108303;28;20412;-64
2023/06/01 10:44:40;;;;;;;16.92;13.80;;;;;;;;;;5113117;28;20028;-63
2023/06/01 10:47:25;;;;;;;17.52;12.10;;;;;;;;;;5112000;28;20020;-63
2023/06/01 10:49:50;;;;;;;19.40;11.77;;;;;;;;;;5100935;28;20039;-64
2023/06/01 10:52:34;;;;;;;23.57;14.70;;;;;;;;;;5111909;28;20027;-64
2023/06/01 10:55:05;;;;;;;17.58;12.43;;;;;;;;;;5111085;28;20090;-64
2023/06/01 10:57:31;;;;;;;16.58;12.05;;;;;;;;;;5111821;28;20031;-63
2023/06/01 11:00:13;;;;;;;20.48;13.35;;;;;;;;;;5111483;28;20023;-63
2023/06/01 11:02:48;;;;;;;17.95;12.10;;;;;;;;;;5111646;28;20016;-64
2023/06/01 11:05:32;;;;;;;17.33;12.32;;;;;;;;;;5112527;28;20028;-64
2023/06/01 11:07:57;;;;;;;19.67;12.50;;;;;;;;;;5103780;28;20116;-64
2023/06/01 11:10:41;;;;;;;20.13;12.48;;;;;;;;;;5112396;28;20470;-64
2023/06/01 11:13:17;;;;;;;19.97;12.23;;;;;;;;;;5111494;28;20499;-64
2023/06/01 11:16:02;;;;;;;17.10;12.80;;;;;;;;;;5097848;28;20106;-65
2023/06/01 11:18:46;;;;;;;15.75;12.05;;;;;;;;;;5096259;28;20024;-63
2023/06/01 11:21:16;;;;;;;17.73;12.32;;;;;;;;;;5090717;28;20540;-64
2023/06/01 11:23:41;;;;;;;20.42;12.43;;;;;;;;;;5091111;28;20020;-63
2023/06/01 11:26:07;;;;;;;15.65;12.77;;;;;;;;;;5102598;28;20085;-64
2023/06/01 11:28:32;;;;;;;18.38;12.02;;;;;;;;;;5111289;28;20069;-63
2023/06/01 11:31:00;;;;;;;22.95;11.75;;;;;;;;;;5111190;28;20068;-65
2023/06/01 11:33:28;;;;;;;16.60;12.10;;;;;;;;;;5099387;28;20032;-65
2023/06/01 11:36:05;;;;;;;16.40;12.43;;;;;;;;;;5099540;28;20088;-65
2023/06/01 11:38:38;;;;;;;24.65;12.88;;;;;;;;;;5098253;28;20762;-63
2023/06/01 11:41:03;;;;;;;10.40;8.07;;;;;;;;;;5104807;28;20027;-63
2023/06/01 11:43:32;;;;;;;14.45;11.07;;;;;;;;;;5103810;28;20035;-64
2023/06/01 11:46:00;;;;;;;19.65;11.77;;;;;;;;;;5096405;28;20020;-63
2023/06/01 11:48:26;;;;;;;18.52;12.40;;;;;;;;;;5103458;28;20115;-64
2023/06/01 11:50:51;;;;;;;16.80;11.40;;;;;;;;;;5108987;28;20103;-64
2023/06/01 11:53:16;;;;;;;16.77;12.40;;;;;;;;;;5099974;28;20274;-64
2023/06/01 11:55:51;;;;;;;20.07;12.47;;;;;;;;;;5104603;28;20019;-64
2023/06/01 11:58:26;;;;;;;16.30;12.18;;;;;;;;;;5102439;28;20326;-64
2023/06/01 12:00:55;;;;;;;18.63;12.23;;;;;;;;;;5101380;28;20471;-65
2023/06/01 12:03:20;;;;;;;22.58;12.63;;;;;;;;;;5108924;28;20102;-65
2023/06/01 12:05:47;;;;;;;21.30;13.30;;;;;;;;;;5104205;28;20102;-64
2023/06/01 12:08:13;;;;;;;19.75;12.77;;;;;;;;;;5097312;28;20517;-65
2023/06/01 12:10:39;;;;;;;19.52;12.43;;;;;;;;;;5108605;28;20034;-64
2023/06/01 12:13:04;;;;;;;17.98;11.88;;;;;;;;;;5082117;28;20023;-65
2023/06/01 12:15:29;;;;;;;24.45;11.63;;;;;;;;;;5100263;28;20026;-65
2023/06/01 12:17:55;;;;;;;17.40;12.00;;;;;;;;;;5096811;28;20027;-65
2023/06/01 12:20:30;;;;;;;21.42;12.57;;;;;;;;;;5101207;28;20658;-64
2023/06/01 12:22:59;;;;;;;20.77;12.88;;;;;;;;;;5095024;28;20016;-65
2023/06/01 12:25:24;;;;;;;18.40;13.80;;;;;;;;;;5097923;28;20024;-64
2023/06/01 12:28:10;;;;;;;21.25;12.93;;;;;;;;;;5093944;28;20040;-65
2023/06/01 12:30:36;;;;;;;19.15;13.65;;;;;;;;;;5094352;28;20038;-65
2023/06/01 12:33:04;;;;;;;19.13;12.25;;;;;;;;;;5093327;28;20032;-64
2023/06/01 12:35:29;;;;;;;16.55;11.35;;;;;;;;;;5104118;28;20023;-64
2023/06/01 12:38:03;;;;;;;13.27;11.30;;;;;;;;;;5090343;28;20118;-65
2023/06/01 12:40:29;;;;;;;22.90;11.40;;;;;;;;;;5091005;28;20384;-65
2023/06/01 12:42:54;;;;;;;18.10;11.07;;;;;;;;;;5090854;28;20111;-65
2023/06/01 12:45:20;;;;;;;21.85;13.00;;;;;;;;;;5092833;28;20048;-66
2023/06/01 12:47:45;;;;;;;20.05;12.10;;;;;;;;;;5092432;28;20162;-64
2023/06/01 12:50:12;;;;;;;20.17;11.33;;;;;;;;;;5100353;28;20071;-64
2023/06/01 12:52:37;;;;;;;19.40;11.50;;;;;;;;;;5097417;28;20277;-65
2023/06/01 12:55:04;;;;;;;20.15;10.25;;;;;;;;;;5097536;28;20031;-66
2023/06/01 12:57:30;;;;;;;16.65;12.88;;;;;;;;;;5093820;28;20478;-64
2023/06/01 12:59:55;;;;;;;17.42;13.23;;;;;;;;;;5100889;28;20023;-65
2023/06/01 13:02:21;;;;;;;13.45;10.57;;;;;;;;;;5108376;28;20037;-65
2023/06/01 13:04:46;;;;;;;16.15;11.13;;;;;;;;;;5100981;28;20054;-64
2023/06/01 13:07:11;;;;;;;15.70;11.20;;;;;;;;;;5090147;28;20424;-65
2023/06/01 13:09:37;;;;;;;14.70;10.18;;;;;;;;;;5090237;28;20027;-65
2023/06/01 13:12:03;;;;;;;15.77;11.05;;;;;;;;;;5102832;28;20054;-65
2023/06/01 13:14:29;;;;;;;25.48;11.40;;;;;;;;;;5089511;28;20471;-64
2023/06/01 13:16:54;;;;;;;20.20;11.65;;;;;;;;;;5090491;28;20472;-66
2023/06/01 13:19:21;;;;;;;18.63;10.55;;;;;;;;;;5089722;28;20099;-66
2023/06/01 13:21:46;;;;;;;14.65;10.65;;;;;;;;;;5103771;28;20040;-65
2023/06/01 13:24:12;;;;;;;14.70;11.15;;;;;;;;;;5090000;28;20020;-64
2023/06/01 13:26:37;;;;;;;13.30;10.38;;;;;;;;;;5090522;28;20016;-64
2023/06/01 13:29:06;;;;;;;16.73;11.15;;;;;;;;;;5090310;28;20080;-64
2023/06/01 13:31:32;;;;;;;17.65;11.23;;;;;;;;;;5090373;28;20538;-64
2023/06/01 13:33:58;;;;;;;16.83;10.85;;;;;;;;;;5090232;28;20035;-64
2023/06/01 13:36:23;;;;;;;15.75;12.30;;;;;;;;;;5098249;28;20035;-64
2023/06/01 13:38:48;;;;;;;17.95;12.07;;;;;;;;;;5109539;28;20168;-64
2023/06/01 13:41:14;;;;;;;17.20;11.40;;;;;;;;;;5108596;28;20110;-65
2023/06/01 13:43:39;;;;;;;17.80;11.27;;;;;;;;;;5108243;28;20273;-66
2023/06/01 13:46:07;;;;;;;17.02;10.60;;;;;;;;;;5093113;28;20027;-64
2023/06/01 13:48:32;;;;;;;16.33;11.80;;;;;;;;;;5095156;28;20032;-64
2023/06/01 13:50:58;;;;;;;12.38;10.65;;;;;;;;;;5112897;28;20064;-65
2023/06/01 13:53:25;;;;;;;18.35;10.27;;;;;;;;;;5112007;28;20076;-63
2023/06/01 13:55:51;;;;;;;14.80;10.75;;;;;;;;;;5112127;28;20051;-64
2023/06/01 13:58:16;;;;;;;18.30;10.93;;;;;;;;;;5109949;28;20059;-64
2023/06/01 14:00:41;;;;;;;21.10;11.97;;;;;;;;;;5093177;28;20290;-64
2023/06/01 14:03:06;;;;;;;16.77;11.27;;;;;;;;;;5102540;28;20352;-65
2023/06/01 14:05:32;;;;;;;19.50;10.73;;;;;;;;;;5111135;28;20526;-65
2023/06/01 14:07:57;;;;;;;23.17;9.40;;;;;;;;;;5112450;28;20030;-65
2023/06/01 14:10:22;;;;;;;15.17;9.53;;;;;;;;;;5110205;28;20024;-65
2023/06/01 14:12:48;;;;;;;17.92;9.30;;;;;;;;;;5111603;28;20277;-64
2023/06/01 14:15:13;;;;;;;15.93;9.20;;;;;;;;;;5109886;28;20042;-63
2023/06/01 14:17:38;;;;;;;13.43;9.30;;;;;;;;;;5111307;28;20763;-64